Time;durP1;ratioP1;P1;durP2;ratioP2;P2;SDS_P1;SDS_P2;PMS_P1;PMS_P2;Temp;Humidity;BMP_temperature;BMP_pressure;BME280_temperature;BME280_humidity;BME280_pressure;Samples;Min_cycle;Max_cycle;Signal;HPM_P1;HPM_P2
2021/01/26 00:01:46;;;;;;;9.95;7.30;;;1.00;99.90;;;;;;6195026;23;20201;-82
2021/01/26 00:04:12;;;;;;;7.60;6.65;;;1.00;99.90;;;;;;6198230;23;20185;-82
2021/01/26 00:06:40;;;;;;;6.32;5.85;;;1.00;99.90;;;;;;6196245;23;20205;-83
2021/01/26 00:09:06;;;;;;;6.93;6.10;;;1.10;99.90;;;;;;6195699;23;20202;-82
2021/01/26 00:11:33;;;;;;;6.90;6.20;;;1.10;99.90;;;;;;6194383;23;20787;-82
2021/01/26 00:14:00;;;;;;;7.60;6.80;;;1.10;99.90;;;;;;6194423;23;20182;-82
2021/01/26 00:16:26;;;;;;;7.45;6.45;;;0.90;99.90;;;;;;6194280;23;20203;-82
2021/01/26 00:18:52;;;;;;;7.93;6.18;;;1.00;99.90;;;;;;6194695;23;20190;-82
2021/01/26 00:21:18;;;;;;;11.23;7.95;;;1.00;99.90;;;;;;6195071;23;20198;-82
2021/01/26 00:23:44;;;;;;;7.35;6.10;;;0.90;99.90;;;;;;6194056;23;20186;-82
2021/01/26 00:26:11;;;;;;;8.90;5.97;;;0.90;99.90;;;;;;6194905;23;20659;-83
2021/01/26 00:28:41;;;;;;;9.45;6.82;;;0.80;99.90;;;;;;6194147;23;20185;-83
2021/01/26 00:31:07;;;;;;;9.05;7.05;;;0.80;99.90;;;;;;6195028;23;20528;-81
2021/01/26 00:33:34;;;;;;;5.90;5.30;;;0.80;99.90;;;;;;6193762;23;20375;-82
2021/01/26 00:36:00;;;;;;;9.40;6.30;;;0.80;99.90;;;;;;6194477;23;20207;-82
2021/01/26 00:38:26;;;;;;;7.15;6.55;;;0.80;99.90;;;;;;6195330;23;20181;-82
2021/01/26 00:40:52;;;;;;;7.93;6.70;;;0.90;99.90;;;;;;6194118;23;20189;-82
2021/01/26 00:43:18;;;;;;;5.93;5.43;;;0.80;99.90;;;;;;6192883;23;20194;-82
2021/01/26 00:45:45;;;;;;;8.10;6.95;;;0.70;99.90;;;;;;6192882;23;20210;-82
2021/01/26 00:48:13;;;;;;;7.53;6.82;;;0.70;99.90;;;;;;6193957;23;20242;-82
2021/01/26 00:50:39;;;;;;;10.02;6.90;;;0.70;99.90;;;;;;6194173;23;20175;-82
2021/01/26 00:53:06;;;;;;;10.10;8.00;;;0.60;99.90;;;;;;6193827;23;20622;-81
2021/01/26 00:55:32;;;;;;;11.63;7.95;;;0.60;99.90;;;;;;6193609;23;20198;-82
2021/01/26 00:57:58;;;;;;;7.65;7.05;;;0.60;99.90;;;;;;6194527;23;20182;-81
2021/01/26 01:00:27;;;;;;;7.90;7.10;;;0.60;99.90;;;;;;6194027;23;20178;-82
2021/01/26 01:02:54;;;;;;;8.80;7.20;;;0.50;99.90;;;;;;6192975;23;20198;-83
2021/01/26 01:05:21;;;;;;;7.30;6.57;;;0.60;99.90;;;;;;6193906;23;20202;-83
2021/01/26 01:07:48;;;;;;;6.63;6.03;;;0.60;99.90;;;;;;6193851;23;20178;-83
2021/01/26 01:10:27;;;;;;;6.45;5.85;;;0.60;99.90;;;;;;6193911;23;20191;-83
2021/01/26 01:12:53;;;;;;;7.90;7.15;;;0.60;99.90;;;;;;6193546;23;20159;-83
2021/01/26 01:15:21;;;;;;;8.90;6.82;;;0.70;99.90;;;;;;6193712;23;20230;-83
2021/01/26 01:17:48;;;;;;;11.15;7.60;;;0.70;99.90;;;;;;6193556;23;20178;-82
2021/01/26 01:20:17;;;;;;;6.93;6.32;;;0.80;99.90;;;;;;6193113;23;20189;-82
2021/01/26 01:22:43;;;;;;;13.05;7.85;;;0.70;99.90;;;;;;6193414;23;20194;-82
2021/01/26 01:25:10;;;;;;;8.73;7.60;;;0.70;99.90;;;;;;6193074;23;20198;-82
2021/01/26 01:27:37;;;;;;;10.55;6.90;;;0.70;99.90;;;;;;6192806;23;20185;-82
2021/01/26 01:30:06;;;;;;;6.43;5.40;;;0.80;99.90;;;;;;6193090;23;20183;-82
2021/01/26 01:32:32;;;;;;;7.75;6.88;;;0.60;99.90;;;;;;6192690;23;20178;-81
2021/01/26 01:34:58;;;;;;;8.27;7.30;;;0.50;99.90;;;;;;6192806;23;20264;-81
2021/01/26 01:37:25;;;;;;;9.70;6.97;;;0.30;99.90;;;;;;6193760;23;20183;-82
2021/01/26 01:39:51;;;;;;;7.40;6.38;;;0.30;99.90;;;;;;6193634;23;20182;-83
2021/01/26 01:42:18;;;;;;;7.07;5.65;;;0.40;99.90;;;;;;6192220;23;20230;-83
2021/01/26 01:44:50;;;;;;;7.82;6.65;;;0.40;99.90;;;;;;6192080;23;20211;-83
2021/01/26 01:47:21;;;;;;;7.85;7.00;;;0.50;99.90;;;;;;6193083;23;20171;-82
2021/01/26 01:49:49;;;;;;;6.10;5.50;;;0.40;99.90;;;;;;6193031;23;20167;-83
2021/01/26 01:52:24;;;;;;;6.57;5.97;;;0.40;99.90;;;;;;6193578;23;20175;-81
2021/01/26 01:54:58;;;;;;;6.38;5.70;;;0.40;99.90;;;;;;6193255;23;20210;-83
2021/01/26 01:57:28;;;;;;;7.75;7.00;;;0.40;99.90;;;;;;6191996;23;20166;-82
2021/01/26 01:59:58;;;;;;;5.60;5.10;;;0.50;99.90;;;;;;6191932;23;20182;-83
2021/01/26 02:02:27;;;;;;;6.70;6.00;;;0.50;99.90;;;;;;6192134;23;20186;-83
2021/01/26 02:04:57;;;;;;;7.15;6.45;;;0.50;99.90;;;;;;6192636;23;20258;-83
2021/01/26 02:07:23;;;;;;;6.40;5.75;;;0.50;99.90;;;;;;6192109;23;20182;-82
2021/01/26 02:09:50;;;;;;;7.25;6.53;;;0.50;99.90;;;;;;6191982;23;20214;-81
2021/01/26 02:12:18;;;;;;;7.00;6.28;;;0.40;99.90;;;;;;6192136;23;20175;-82
2021/01/26 02:14:53;;;;;;;8.40;7.22;;;0.60;99.90;;;;;;6191363;23;20253;-82
2021/01/26 02:17:33;;;;;;;8.45;6.25;;;0.60;99.90;;;;;;6192169;23;20165;-81
2021/01/26 02:20:51;;;;;;;6.57;5.97;;;0.60;99.90;;;;;;6192257;23;20503;-81
2021/01/26 02:23:44;;;;;;;8.93;6.32;;;0.50;99.90;;;;;;6042484;23;20209;-82
2021/01/26 02:26:58;;;;;;;8.07;7.10;;;0.50;99.90;;;;;;6183954;23;20199;-82
2021/01/26 02:29:28;;;;;;;7.45;6.18;;;0.40;99.90;;;;;;6191188;23;20186;-82
2021/01/26 02:32:17;;;;;;;7.72;6.47;;;0.40;99.90;;;;;;6191452;23;20167;-82
2021/01/26 02:35:17;;;;;;;6.45;5.85;;;0.40;99.90;;;;;;6191922;23;20203;-82
2021/01/26 02:38:19;;;;;;;5.72;5.10;;;0.30;99.90;;;;;;6191835;23;20167;-82
2021/01/26 02:40:51;;;;;;;6.90;5.90;;;0.30;99.90;;;;;;6190056;23;20178;-82
2021/01/26 02:43:34;;;;;;;5.65;5.15;;;0.30;99.90;;;;;;6191517;23;20670;-81
2021/01/26 02:46:10;;;;;;;9.73;6.88;;;0.20;99.90;;;;;;6191604;23;20559;-82
2021/01/26 02:48:57;;;;;;;6.80;5.80;;;0.20;99.90;;;;;;6192752;23;20193;-82
2021/01/26 02:51:33;;;;;;;9.60;7.15;;;0.40;99.90;;;;;;6191714;23;20191;-82
2021/01/26 02:54:03;;;;;;;9.05;6.05;;;0.50;99.90;;;;;;6192227;23;20606;-82
2021/01/26 02:56:38;;;;;;;6.88;5.30;;;0.50;99.90;;;;;;6192052;23;20199;-82
2021/01/26 02:59:12;;;;;;;8.27;7.47;;;0.60;99.90;;;;;;6191385;23;20171;-82
2021/01/26 03:01:44;;;;;;;6.72;5.97;;;0.60;99.90;;;;;;6191040;23;20262;-81
2021/01/26 03:04:20;;;;;;;7.60;6.60;;;0.70;99.90;;;;;;6192066;23;20217;-82
2021/01/26 03:06:51;;;;;;;6.65;6.00;;;0.70;99.90;;;;;;6191473;23;20171;-82
2021/01/26 03:09:25;;;;;;;7.75;6.18;;;0.70;99.90;;;;;;6193627;23;20174;-83
2021/01/26 03:11:57;;;;;;;6.65;5.38;;;0.70;99.90;;;;;;6193197;23;20159;-82
2021/01/26 03:14:30;;;;;;;6.93;6.20;;;0.70;99.90;;;;;;6193616;23;20175;-82
2021/01/26 03:17:04;;;;;;;8.93;6.55;;;0.70;99.90;;;;;;6194021;23;20173;-82
2021/01/26 03:19:34;;;;;;;12.23;8.27;;;0.70;99.90;;;;;;6194900;23;20172;-81
2021/01/26 03:22:02;;;;;;;6.40;5.80;;;0.70;99.90;;;;;;6194642;23;20199;-81
2021/01/26 03:24:32;;;;;;;10.10;7.45;;;0.80;99.90;;;;;;6195158;23;20178;-82
2021/01/26 03:27:02;;;;;;;7.70;6.90;;;0.70;99.90;;;;;;6195056;23;20183;-82
2021/01/26 03:29:30;;;;;;;9.93;6.93;;;0.70;99.90;;;;;;6194418;23;20642;-81
2021/01/26 03:32:00;;;;;;;9.27;5.47;;;0.70;99.90;;;;;;6194144;23;20197;-82
2021/01/26 03:34:27;;;;;;;3.58;3.28;;;0.60;99.90;;;;;;6193041;23;20189;-82
2021/01/26 03:36:54;;;;;;;9.55;7.18;;;0.60;99.90;;;;;;6193681;23;20650;-82
2021/01/26 03:39:20;;;;;;;9.02;7.50;;;0.60;99.90;;;;;;6193862;23;20178;-82
2021/01/26 03:41:48;;;;;;;9.52;6.68;;;0.60;99.90;;;;;;6192939;23;20206;-82
2021/01/26 03:44:15;;;;;;;7.93;6.18;;;0.50;99.90;;;;;;6194355;23;20186;-82
2021/01/26 03:47:00;;;;;;;7.65;6.30;;;0.50;99.90;;;;;;6194035;23;20199;-81
2021/01/26 03:49:37;;;;;;;6.50;5.95;;;0.50;99.90;;;;;;6192896;23;20185;-82
2021/01/26 03:52:19;;;;;;;8.75;7.30;;;0.50;99.90;;;;;;6193595;23;20170;-82
2021/01/26 03:54:48;;;;;;;8.85;7.93;;;0.40;99.90;;;;;;6193212;23;20203;-82
2021/01/26 03:57:32;;;;;;;9.32;6.93;;;0.40;99.90;;;;;;6194027;23;20183;-82
2021/01/26 04:00:10;;;;;;;10.60;6.90;;;0.40;99.90;;;;;;6193546;23;20173;-82
2021/01/26 04:02:50;;;;;;;10.98;9.40;;;0.40;99.90;;;;;;6192738;23;20193;-82
2021/01/26 04:05:22;;;;;;;8.82;6.88;;;0.30;99.90;;;;;;6193447;23;20214;-82
2021/01/26 04:07:55;;;;;;;11.60;8.88;;;0.30;99.90;;;;;;6194093;23;20174;-82
2021/01/26 04:10:23;;;;;;;11.50;8.48;;;0.30;99.90;;;;;;6193991;23;20163;-82
2021/01/26 04:12:57;;;;;;;10.70;8.10;;;0.30;99.90;;;;;;6192950;23;20175;-81
2021/01/26 04:15:30;;;;;;;11.70;9.40;;;0.30;99.90;;;;;;6193163;23;20256;-80
2021/01/26 04:17:57;;;;;;;10.93;8.13;;;0.30;99.90;;;;;;6192806;23;20595;-81
2021/01/26 04:20:27;;;;;;;10.52;8.82;;;0.30;99.90;;;;;;6194139;23;20351;-80
2021/01/26 04:22:59;;;;;;;4.85;3.95;;;0.20;99.90;;;;;;6193239;23;20195;-80
2021/01/26 04:25:30;;;;;;;10.10;7.97;;;0.30;99.90;;;;;;6192958;23;20199;-80
2021/01/26 04:28:00;;;;;;;9.90;6.95;;;0.30;99.90;;;;;;6193191;23;20155;-81
2021/01/26 04:30:28;;;;;;;9.32;5.97;;;0.40;99.90;;;;;;6191672;23;20167;-81
2021/01/26 04:33:02;;;;;;;7.05;6.35;;;0.40;99.90;;;;;;6191194;23;20182;-80
2021/01/26 04:35:45;;;;;;;7.15;5.07;;;0.40;99.90;;;;;;6192382;23;20211;-81
2021/01/26 04:38:11;;;;;;;8.52;6.25;;;0.40;99.90;;;;;;6191245;23;20179;-81
2021/01/26 04:40:37;;;;;;;7.13;6.18;;;0.40;99.90;;;;;;6191734;23;20190;-80
2021/01/26 04:43:10;;;;;;;10.35;7.78;;;0.50;99.90;;;;;;6191830;23;20616;-81
2021/01/26 04:45:50;;;;;;;8.63;6.78;;;0.50;99.90;;;;;;6191070;23;20203;-80
2021/01/26 04:48:24;;;;;;;7.07;6.38;;;0.50;99.90;;;;;;6192847;23;20236;-81
2021/01/26 04:50:54;;;;;;;9.50;6.18;;;0.50;99.90;;;;;;6192516;23;20167;-80
2021/01/26 04:53:38;;;;;;;9.02;7.97;;;0.60;99.90;;;;;;6191007;23;20163;-80
2021/01/26 04:56:11;;;;;;;7.13;5.30;;;0.60;99.90;;;;;;6192580;23;20519;-81
2021/01/26 04:59:03;;;;;;;8.55;7.47;;;0.60;99.90;;;;;;6193246;23;20169;-81
2021/01/26 05:01:42;;;;;;;4.90;3.90;;;0.60;99.90;;;;;;6194887;23;20159;-82
2021/01/26 05:04:13;;;;;;;7.15;5.90;;;0.60;99.90;;;;;;6196052;23;20169;-81
2021/01/26 05:06:42;;;;;;;4.43;3.25;;;0.60;99.90;;;;;;6198115;23;20209;-81
2021/01/26 05:09:14;;;;;;;7.80;6.53;;;0.60;99.90;;;;;;6198952;23;20187;-80
2021/01/26 05:11:44;;;;;;;7.50;6.45;;;0.70;99.90;;;;;;6198342;23;20171;-81
2021/01/26 05:14:19;;;;;;;6.10;5.43;;;0.70;99.90;;;;;;6199032;23;20189;-81
2021/01/26 05:16:55;;;;;;;6.45;5.47;;;0.70;99.90;;;;;;6199255;23;20194;-81
2021/01/26 05:19:27;;;;;;;8.38;6.93;;;0.70;99.90;;;;;;6199248;23;20177;-81
2021/01/26 05:22:02;;;;;;;8.45;5.05;;;0.70;99.90;;;;;;6198653;23;20201;-80
2021/01/26 05:24:34;;;;;;;8.90;6.03;;;0.80;99.90;;;;;;6199185;23;20162;-82
2021/01/26 05:27:01;;;;;;;14.18;5.50;;;0.80;99.90;;;;;;6199114;23;20163;-82
2021/01/26 05:29:28;;;;;;;8.77;5.45;;;0.80;99.90;;;;;;6198406;23;20193;-81
2021/01/26 05:32:02;;;;;;;9.13;6.07;;;0.80;99.90;;;;;;6198526;23;20187;-82
2021/01/26 05:34:31;;;;;;;6.13;5.00;;;0.80;99.90;;;;;;6199729;23;20166;-82
2021/01/26 05:36:58;;;;;;;8.00;6.00;;;0.80;99.90;;;;;;6199350;23;20470;-81
2021/01/26 05:39:30;;;;;;;7.88;5.32;;;0.80;99.90;;;;;;6199756;23;20192;-81
2021/01/26 05:41:58;;;;;;;6.10;5.07;;;0.90;99.90;;;;;;6198187;23;20209;-81
2021/01/26 05:44:27;;;;;;;5.93;4.70;;;0.90;99.90;;;;;;6198652;23;20344;-82
2021/01/26 05:46:54;;;;;;;5.88;5.28;;;0.90;99.90;;;;;;6199801;23;20166;-80
2021/01/26 05:49:35;;;;;;;7.47;5.65;;;0.80;99.90;;;;;;6199104;23;20182;-82
2021/01/26 05:52:02;;;;;;;5.63;4.80;;;0.80;99.90;;;;;;6198254;23;20197;-80
2021/01/26 05:54:34;;;;;;;6.65;5.93;;;0.90;99.90;;;;;;6198312;23;20182;-82
2021/01/26 05:57:01;;;;;;;7.38;6.20;;;0.90;99.90;;;;;;6198506;23;20179;-81
2021/01/26 05:59:30;;;;;;;6.15;5.60;;;0.90;99.90;;;;;;6198953;23;20198;-81
2021/01/26 06:02:09;;;;;;;4.70;4.22;;;0.90;99.90;;;;;;6197843;23;20198;-81
2021/01/26 06:04:37;;;;;;;5.50;4.97;;;1.00;99.90;;;;;;6197627;23;20229;-82
2021/01/26 06:07:05;;;;;;;5.70;5.22;;;1.00;99.90;;;;;;6199181;23;20186;-81
2021/01/26 06:09:48;;;;;;;4.57;4.18;;;0.90;99.90;;;;;;6199199;23;20186;-82
2021/01/26 06:12:20;;;;;;;6.45;4.75;;;0.90;99.90;;;;;;6198865;23;20171;-81
2021/01/26 06:15:04;;;;;;;4.22;3.40;;;0.90;99.90;;;;;;6198497;23;20529;-82
2021/01/26 06:17:33;;;;;;;5.15;4.63;;;0.90;99.90;;;;;;6199254;23;20165;-82
2021/01/26 06:20:16;;;;;;;3.35;3.05;;;0.90;99.90;;;;;;6197708;23;20217;-82
2021/01/26 06:22:43;;;;;;;5.00;4.57;;;0.80;99.90;;;;;;6196907;23;20182;-84
2021/01/26 06:29:12;;;;;;;5.20;4.78;;;0.90;99.90;;;;;;6074056;23;20177;-83
2021/01/26 06:31:55;;;;;;;6.75;4.55;;;0.90;99.90;;;;;;6195122;23;20166;-84
2021/01/26 06:34:56;;;;;;;4.60;3.80;;;0.90;99.90;;;;;;6196084;23;20163;-85
2021/01/26 06:37:41;;;;;;;6.38;4.93;;;0.90;99.90;;;;;;6196010;23;20163;-83
2021/01/26 06:40:33;;;;;;;5.47;5.00;;;1.00;99.90;;;;;;6195911;23;20170;-84
2021/01/26 06:43:05;;;;;;;6.88;4.80;;;1.00;99.90;;;;;;6195227;23;20238;-84
2021/01/26 06:45:39;;;;;;;7.78;5.45;;;0.90;99.90;;;;;;6195774;23;20232;-85
2021/01/26 06:48:41;;;;;;;5.57;3.10;;;1.00;99.90;;;;;;6196682;23;20225;-84
2021/01/26 06:51:35;;;;;;;4.40;4.00;;;0.90;99.90;;;;;;6189291;23;20202;-85
2021/01/26 06:54:30;;;;;;;5.18;4.60;;;1.00;99.90;;;;;;6193981;23;20166;-85
2021/01/26 07:00:42;;;;;;;5.13;3.83;;;1.00;99.90;;;;;;6135090;23;20182;-84
2021/01/26 07:03:37;;;;;;;4.53;3.60;;;1.00;99.90;;;;;;6199526;23;20186;-83
2021/01/26 07:06:27;;;;;;;4.90;4.50;;;0.90;99.90;;;;;;6197616;23;20194;-85
2021/01/26 07:09:21;;;;;;;3.78;3.00;;;0.90;99.90;;;;;;6194165;23;20187;-84
2021/01/26 07:12:21;;;;;;;5.78;4.13;;;0.90;99.90;;;;;;6200081;23;20214;-84
2021/01/26 07:15:16;;;;;;;2.85;2.50;;;0.90;99.90;;;;;;6191021;23;20203;-82
2021/01/26 07:18:36;;;;;;;3.20;2.92;;;1.10;99.90;;;;;;6175247;23;20198;-84
2021/01/26 07:21:19;;;;;;;8.85;4.57;;;1.10;99.90;;;;;;6200154;23;20478;-84
2021/01/26 07:24:09;;;;;;;4.20;3.63;;;1.10;99.90;;;;;;6195465;23;20190;-84
2021/01/26 07:27:35;;;;;;;;;;;;;;;;;;;;;
2021/01/26 07:30:12;;;;;;;2.40;2.25;;;1.30;99.90;;;;;;6196829;23;20179;-85
2021/01/26 07:32:58;;;;;;;2.60;2.40;;;1.30;99.90;;;;;;6193964;23;20297;-84
2021/01/26 07:35:35;;;;;;;5.75;5.25;;;1.40;99.90;;;;;;6194125;23;20198;-85
2021/01/26 07:38:07;;;;;;;5.53;4.25;;;1.50;99.90;;;;;;6196682;23;20163;-85
2021/01/26 07:40:39;;;;;;;6.85;3.70;;;1.50;99.90;;;;;;6197416;23;20250;-84
2021/01/26 07:43:17;;;;;;;4.88;3.70;;;1.60;99.90;;;;;;6198391;23;20187;-80
2021/01/26 07:46:16;;;;;;;3.10;2.90;;;1.60;99.90;;;;;;6197939;23;20218;-84
2021/01/26 07:48:56;;;;;;;4.20;3.80;;;1.70;99.90;;;;;;6017342;23;20201;-84
2021/01/26 07:51:30;;;;;;;4.75;4.18;;;1.70;99.90;;;;;;6196856;23;20201;-83
2021/01/26 07:54:15;;;;;;;4.60;4.18;;;1.70;99.90;;;;;;6200901;23;20162;-84
2021/01/26 07:56:46;;;;;;;8.38;3.70;;;1.80;99.90;;;;;;6197192;23;20254;-84
2021/01/26 07:59:25;;;;;;;6.25;3.10;;;1.80;99.90;;;;;;6199858;23;20253;-84
2021/01/26 08:01:57;;;;;;;4.28;3.72;;;1.80;99.90;;;;;;6201075;23;20543;-84
2021/01/26 08:04:34;;;;;;;4.85;3.50;;;1.80;99.90;;;;;;6200642;23;20173;-85
2021/01/26 08:07:04;;;;;;;6.22;4.50;;;1.90;99.90;;;;;;6197045;23;20169;-83
2021/01/26 08:09:53;;;;;;;3.22;3.03;;;1.90;99.90;;;;;;6199329;23;20171;-83
2021/01/26 08:12:40;;;;;;;4.57;3.53;;;1.90;99.90;;;;;;6196867;23;20160;-82
2021/01/26 08:15:27;;;;;;;4.05;3.65;;;1.80;99.90;;;;;;6196979;23;20202;-84
2021/01/26 08:17:55;;;;;;;3.20;2.90;;;1.80;99.90;;;;;;6197450;23;20159;-83
2021/01/26 08:20:29;;;;;;;2.72;2.53;;;1.80;99.90;;;;;;6198222;23;20548;-83
2021/01/26 08:22:58;;;;;;;2.60;2.40;;;1.80;99.90;;;;;;6198586;23;20182;-82
2021/01/26 08:25:33;;;;;;;4.72;3.20;;;1.70;99.90;;;;;;6198988;23;20231;-83
2021/01/26 08:28:08;;;;;;;3.97;3.65;;;1.60;99.90;;;;;;6196555;23;20186;-83
2021/01/26 08:31:02;;;;;;;5.97;3.55;;;1.50;99.90;;;;;;6197572;23;20501;-83
2021/01/26 08:33:33;;;;;;;2.97;2.38;;;1.40;99.90;;;;;;6047489;23;20186;-83
2021/01/26 08:36:11;;;;;;;5.60;3.20;;;1.30;99.90;;;;;;6185826;23;20258;-82
2021/01/26 08:39:00;;;;;;;2.97;2.63;;;1.30;99.90;;;;;;6197233;23;20178;-82
2021/01/26 08:41:44;;;;;;;3.97;3.67;;;1.40;99.90;;;;;;6187243;23;20266;-83
2021/01/26 08:44:56;;;;;;;2.92;2.60;;;1.40;99.90;;;;;;6197466;23;20240;-83
2021/01/26 08:47:46;;;;;;;3.30;3.00;;;1.30;99.90;;;;;;6198704;23;20194;-83
2021/01/26 08:50:22;;;;;;;8.20;3.22;;;1.30;99.90;;;;;;6197279;23;20163;-82
2021/01/26 08:52:51;;;;;;;3.70;3.08;;;1.20;99.90;;;;;;6199020;23;20631;-83
2021/01/26 08:55:39;;;;;;;4.38;3.22;;;1.20;99.90;;;;;;6197072;23;20276;-82
2021/01/26 08:58:37;;;;;;;4.05;3.75;;;1.30;99.90;;;;;;6197528;23;20186;-82
2021/01/26 09:01:04;;;;;;;4.47;4.15;;;1.20;99.90;;;;;;6200385;23;20588;-82
2021/01/26 09:03:38;;;;;;;3.97;3.67;;;1.20;99.90;;;;;;6198918;23;20198;-82
2021/01/26 09:06:07;;;;;;;4.88;4.03;;;1.10;99.90;;;;;;6199172;23;20203;-82
2021/01/26 09:08:49;;;;;;;4.95;4.20;;;1.10;99.90;;;;;;6198980;23;20277;-81
2021/01/26 09:11:26;;;;;;;4.82;4.30;;;1.10;99.90;;;;;;6199964;23;20245;-83
2021/01/26 09:13:59;;;;;;;5.13;4.68;;;1.10;99.90;;;;;;6199810;23;20168;-82
2021/01/26 09:16:28;;;;;;;7.82;3.53;;;1.20;99.90;;;;;;6192233;23;20218;-81
2021/01/26 09:18:58;;;;;;;6.05;2.92;;;1.20;99.90;;;;;;6191973;23;20209;-82
2021/01/26 09:21:25;;;;;;;3.55;2.80;;;1.20;99.90;;;;;;6191741;23;20472;-82
2021/01/26 09:23:53;;;;;;;3.65;3.45;;;1.20;99.90;;;;;;6190859;23;20206;-82
2021/01/26 09:26:24;;;;;;;3.85;3.22;;;1.20;99.90;;;;;;6197706;23;20202;-82
2021/01/26 09:28:57;;;;;;;3.40;3.20;;;1.20;99.90;;;;;;6199655;23;20162;-82
2021/01/26 09:31:31;;;;;;;4.68;3.65;;;1.30;99.90;;;;;;6199966;23;20210;-82
2021/01/26 09:34:13;;;;;;;4.68;3.95;;;1.30;99.90;;;;;;6200466;23;20172;-81
2021/01/26 09:37:27;;;;;;;;;;;;;;;;;;;;;
2021/01/26 09:40:07;;;;;;;4.75;2.72;;;1.60;99.90;;;;;;6201100;23;20181;-84
2021/01/26 09:42:36;;;;;;;4.43;2.28;;;1.70;99.90;;;;;;6202446;23;20182;-84
2021/01/26 09:45:08;;;;;;;4.18;3.33;;;1.90;99.90;;;;;;6199439;23;20206;-83
2021/01/26 09:47:34;;;;;;;5.30;3.42;;;2.00;99.90;;;;;;6197551;23;20167;-82
2021/01/26 09:52:49;;;;;;;2.63;2.42;;;2.10;99.90;;;;;;6195139;23;20185;-82
2021/01/26 09:55:16;;;;;;;2.53;2.17;;;2.10;99.90;;;;;;6199358;23;20205;-83
2021/01/26 09:57:47;;;;;;;5.72;3.33;;;2.20;99.90;;;;;;6197681;23;20183;-82
2021/01/26 10:00:22;;;;;;;2.25;2.05;;;2.20;99.90;;;;;;6199128;23;20165;-83
2021/01/26 10:03:03;;;;;;;;;;;;;;;;;;;;;
2021/01/26 10:11:24;;;;;;;;;;;;;;;;;;;;;
2021/01/26 10:14:27;;;;;;;4.72;2.45;;;1.80;99.90;;;;;;6189854;23;20179;-84
2021/01/26 10:20:29;;;;;;;2.60;2.40;;;2.00;99.90;;;;;;6068529;23;20589;-83
2021/01/26 10:23:27;;;;;;;;;;;;;;;;;;;;;
2021/01/26 10:30:10;;;;;;;;;;;;;;;;;;;;;
2021/01/26 10:36:37;;;;;;;3.30;3.10;;;2.20;99.90;;;;;;6071718;23;20205;-82
2021/01/26 10:42:30;;;;;;;3.40;2.25;;;2.40;99.90;;;;;;6024356;23;20210;-83
2021/01/26 10:45:03;;;;;;;2.58;2.47;;;2.70;99.90;;;;;;6200009;23;20205;-83
2021/01/26 10:47:52;;;;;;;6.82;2.17;;;2.80;99.90;;;;;;6195609;23;20167;-82
2021/01/26 10:50:32;;;;;;;3.65;2.58;;;3.00;99.90;;;;;;6197955;23;20182;-83
2021/01/26 10:53:01;;;;;;;2.00;1.63;;;2.90;99.90;;;;;;6199139;23;20194;-85
2021/01/26 10:55:30;;;;;;;1.75;1.65;;;2.70;99.90;;;;;;6200268;23;20206;-81
2021/01/26 10:57:58;;;;;;;4.03;2.25;;;2.70;99.90;;;;;;6200613;23;20189;-83
2021/01/26 11:00:29;;;;;;;2.20;1.90;;;2.60;99.90;;;;;;6197776;23;20185;-84
2021/01/26 11:03:03;;;;;;;2.15;1.77;;;2.60;99.90;;;;;;6193906;23;20701;-84
2021/01/26 11:08:57;;;;;;;2.85;2.22;;;2.30;99.90;;;;;;6187101;23;20186;-85
2021/01/26 11:11:43;;;;;;;5.97;1.90;;;2.40;99.90;;;;;;6186194;23;20167;-84
2021/01/26 11:14:15;;;;;;;1.85;1.75;;;2.20;99.90;;;;;;6189581;23;20175;-83
2021/01/26 11:16:50;;;;;;;4.03;2.40;;;2.20;99.90;;;;;;6189380;23;20210;-84
2021/01/26 11:19:32;;;;;;;7.05;2.90;;;2.30;99.90;;;;;;6196217;23;20210;-85
2021/01/26 11:22:17;;;;;;;1.85;1.75;;;2.30;99.90;;;;;;6192686;23;20170;-87
2021/01/26 11:25:06;;;;;;;4.07;1.85;;;2.20;99.90;;;;;;6195327;23;20194;-83
2021/01/26 11:28:11;;;;;;;4.75;2.72;;;2.10;99.90;;;;;;6198240;23;20171;-85
2021/01/26 11:31:01;;;;;;;2.90;2.15;;;2.10;99.90;;;;;;6199201;23;20178;-83
2021/01/26 11:33:32;;;;;;;3.08;2.28;;;2.10;99.90;;;;;;6194341;23;20198;-82
2021/01/26 11:35:59;;;;;;;2.00;1.90;;;2.10;99.90;;;;;;6194391;23;20202;-82
2021/01/26 11:38:27;;;;;;;6.70;2.28;;;2.10;99.90;;;;;;6197616;23;20553;-83
2021/01/26 11:41:04;;;;;;;3.28;2.17;;;2.10;99.90;;;;;;6198763;23;20182;-83
2021/01/26 11:43:44;;;;;;;3.03;2.28;;;2.10;99.90;;;;;;6198356;23;20187;-84
2021/01/26 11:46:25;;;;;;;1.85;1.75;;;2.20;99.90;;;;;;6196890;23;20225;-85
2021/01/26 11:49:17;;;;;;;2.35;2.15;;;2.20;99.90;;;;;;6199289;23;20264;-85
2021/01/26 11:51:43;;;;;;;4.60;1.95;;;2.10;99.90;;;;;;6199138;23;20163;-84
2021/01/26 11:54:26;;;;;;;1.88;1.77;;;2.20;99.90;;;;;;6192437;23;20178;-85
2021/01/26 12:00:11;;;;;;;1.73;1.63;;;2.20;99.90;;;;;;6116823;23;20186;-85
2021/01/26 12:02:49;;;;;;;4.25;2.28;;;2.30;99.90;;;;;;6193563;23;20190;-84
2021/01/26 12:05:33;;;;;;;1.92;1.83;;;2.40;99.90;;;;;;6195220;23;20191;-85
2021/01/26 12:08:24;;;;;;;3.28;1.67;;;2.50;99.90;;;;;;6192786;23;20170;-84
2021/01/26 12:10:56;;;;;;;3.78;2.47;;;3.10;99.90;;;;;;6196086;23;20164;-84
2021/01/26 12:13:25;;;;;;;3.55;2.15;;;3.60;99.90;;;;;;6195832;23;20183;-85
2021/01/26 12:19:46;;;;;;;3.42;1.60;;;4.40;99.90;;;;;;6168954;23;20188;-87
2021/01/26 12:22:19;;;;;;;2.45;1.88;;;4.30;99.70;;;;;;6188476;23;20167;-86
2021/01/26 12:25:15;;;;;;;;;;;;;;;;;;;;;
2021/01/26 12:27:48;;;;;;;2.95;1.83;;;3.60;99.50;;;;;;6193122;23;20174;-83
2021/01/26 12:30:51;;;;;;;4.43;1.25;;;3.20;99.90;;;;;;6191547;23;20240;-85
2021/01/26 12:34:03;;;;;;;3.00;2.38;;;3.10;99.90;;;;;;6191266;23;20163;-85
2021/01/26 12:36:34;;;;;;;2.53;1.85;;;3.00;99.90;;;;;;6191991;23;20233;-85
2021/01/26 12:43:04;;;;;;;;;;;;;;;;;;;;;
2021/01/26 12:45:34;;;;;;;2.45;2.05;;;2.80;99.90;;;;;;6025345;23;20262;-86
2021/01/26 12:48:01;;;;;;;1.42;1.15;;;2.80;99.90;;;;;;6045727;23;20251;-84
2021/01/26 12:50:53;;;;;;;;;;;;;;;;;;;;;
2021/01/26 13:06:27;;;;;;;2.03;1.63;;;2.50;99.90;;;;;;6188489;23;20262;-85
2021/01/26 13:12:22;;;;;;;1.58;1.50;;;2.70;99.90;;;;;;6184948;23;20233;-85
2021/01/26 13:15:07;;;;;;;1.75;1.65;;;2.90;99.90;;;;;;6190058;23;20274;-83
2021/01/26 13:17:46;;;;;;;0.93;0.93;;;3.00;99.90;;;;;;6192042;23;20172;-85
2021/01/26 13:20:18;;;;;;;6.05;2.45;;;3.40;99.90;;;;;;6190022;23;20194;-84
2021/01/26 13:22:54;;;;;;;4.75;1.67;;;3.60;99.90;;;;;;6188789;23;20214;-85
2021/01/26 13:25:39;;;;;;;1.63;1.52;;;3.60;99.90;;;;;;6190504;23;20561;-85
2021/01/26 13:31:30;;;;;;;1.38;1.17;;;3.30;99.90;;;;;;5966105;23;20781;-85
2021/01/26 13:34:10;;;;;;;1.60;1.50;;;3.30;99.90;;;;;;6178748;23;20306;-84
2021/01/26 13:36:41;;;;;;;1.70;1.27;;;3.60;99.90;;;;;;6192414;23;20195;-84
2021/01/26 13:39:08;;;;;;;3.10;2.13;;;3.90;99.90;;;;;;6192366;23;20205;-86
2021/01/26 13:42:13;;;;;;;2.65;1.63;;;4.50;99.40;;;;;;6194071;23;20180;-86
2021/01/26 13:44:56;;;;;;;1.85;1.73;;;4.90;97.50;;;;;;6191789;23;20265;-84
2021/01/26 13:47:32;;;;;;;1.42;1.30;;;4.30;97.00;;;;;;6189914;23;20631;-84
2021/01/26 13:50:54;;;;;;;2.25;2.05;;;4.20;97.50;;;;;;6192957;23;20155;-85
2021/01/26 13:53:51;;;;;;;2.05;1.88;;;4.00;98.20;;;;;;6192042;23;20230;-85
2021/01/26 13:56:26;;;;;;;2.55;1.90;;;4.00;98.00;;;;;;6013285;23;20598;-85
2021/01/26 13:59:26;;;;;;;;;;;;;;;;;;;;;
2021/01/26 14:02:11;;;;;;;1.75;1.65;;;4.80;97.70;;;;;;6190052;23;20208;-85
2021/01/26 14:04:44;;;;;;;3.45;2.10;;;5.00;97.10;;;;;;6188368;23;20184;-84
2021/01/26 14:07:46;;;;;;;;;;;;;;;;;;;;;
2021/01/26 14:10:21;;;;;;;4.07;2.10;;;5.60;96.00;;;;;;6190164;23;20183;-84
2021/01/26 14:13:04;;;;;;;;;;;;;;;;;;;;;
2021/01/26 14:25:02;;;;;;;1.65;1.55;;;4.10;96.70;;;;;;6007411;23;20671;-84
2021/01/26 14:51:51;;;;;;;2.55;1.35;;;3.50;97.90;;;;;;5748936;24;20190;-85
2021/01/26 14:54:21;;;;;;;1.48;1.38;;;3.60;98.10;;;;;;5911729;23;20266;-85
2021/01/26 15:00:46;;;;;;;5.00;2.00;;;3.60;96.90;;;;;;6012012;23;20607;-88
2021/01/26 15:03:12;;;;;;;2.20;1.83;;;3.70;96.80;;;;;;6106684;23;20207;-84
2021/01/26 15:05:40;;;;;;;1.67;1.58;;;3.70;96.60;;;;;;6189695;23;20205;-85
2021/01/26 15:08:11;;;;;;;1.80;1.58;;;3.60;96.70;;;;;;6190146;23;20180;-85
2021/01/26 15:10:52;;;;;;;2.58;0.98;;;3.60;96.90;;;;;;6193400;23;20166;-85
2021/01/26 15:13:21;;;;;;;1.73;1.48;;;3.60;96.50;;;;;;6191284;23;20237;-85
2021/01/26 15:15:57;;;;;;;1.40;1.30;;;3.40;96.20;;;;;;6195999;23;20693;-85
2021/01/26 15:21:16;;;;;;;2.58;2.38;;;3.20;96.10;;;;;;6188580;23;20178;-85
2021/01/26 15:23:48;;;;;;;1.95;1.23;;;3.10;96.30;;;;;;6192494;23;20207;-85
2021/01/26 15:26:18;;;;;;;0.77;0.77;;;3.10;96.80;;;;;;6193796;23;20213;-85
2021/01/26 15:29:24;;;;;;;1.73;1.63;;;2.90;96.50;;;;;;6191497;23;20178;-85
2021/01/26 15:32:25;;;;;;;2.35;1.45;;;2.90;96.80;;;;;;6198117;23;20158;-86
2021/01/26 15:34:56;;;;;;;1.60;1.50;;;2.80;96.80;;;;;;6203314;23;20257;-84
2021/01/26 15:37:29;;;;;;;2.20;2.00;;;2.90;96.90;;;;;;6210965;23;20163;-85
2021/01/26 15:40:15;;;;;;;1.63;1.20;;;2.80;97.00;;;;;;6210885;23;20179;-86
2021/01/26 15:42:55;;;;;;;2.35;1.50;;;2.80;97.20;;;;;;6211885;23;20221;-87
2021/01/26 15:48:45;;;;;;;1.52;1.35;;;2.80;97.10;;;;;;6207882;23;20179;-86